sensor_id;sensor_type;location;lat;lon;timestamp;P1;durP1;ratioP1;P2;durP2;ratioP2
71572;SDS011;59408;51.032;9.410;2023-08-12T00:00:17;8.63;;;3.50;;
71572;SDS011;59408;51.032;9.410;2023-08-12T00:02:45;6.93;;;3.80;;
71572;SDS011;59408;51.032;9.410;2023-08-12T00:05:12;6.68;;;3.75;;
71572;SDS011;59408;51.032;9.410;2023-08-12T00:07:40;7.55;;;3.78;;
71572;SDS011;59408;51.032;9.410;2023-08-12T00:10:07;7.25;;;4.00;;
71572;SDS011;59408;51.032;9.410;2023-08-12T00:12:36;6.70;;;3.80;;
71572;SDS011;59408;51.032;9.410;2023-08-12T00:15:06;10.70;;;4.55;;
71572;SDS011;59408;51.032;9.410;2023-08-12T00:17:34;8.18;;;4.25;;
71572;SDS011;59408;51.032;9.410;2023-08-12T00:20:01;6.63;;;3.95;;
71572;SDS011;59408;51.032;9.410;2023-08-12T00:22:29;7.28;;;3.97;;
71572;SDS011;59408;51.032;9.410;2023-08-12T00:24:56;7.70;;;4.00;;
71572;SDS011;59408;51.032;9.410;2023-08-12T00:27:23;7.35;;;4.20;;
71572;SDS011;59408;51.032;9.410;2023-08-12T00:29:49;7.05;;;4.18;;
71572;SDS011;59408;51.032;9.410;2023-08-12T00:32:18;9.40;;;4.03;;
71572;SDS011;59408;51.032;9.410;2023-08-12T00:34:44;7.47;;;4.07;;
71572;SDS011;59408;51.032;9.410;2023-08-12T00:37:11;8.10;;;3.63;;
71572;SDS011;59408;51.032;9.410;2023-08-12T00:39:38;6.80;;;3.38;;
71572;SDS011;59408;51.032;9.410;2023-08-12T00:42:05;7.03;;;3.70;;
71572;SDS011;59408;51.032;9.410;2023-08-12T00:44:32;7.10;;;3.88;;
71572;SDS011;59408;51.032;9.410;2023-08-12T00:46:59;7.70;;;3.85;;
71572;SDS011;59408;51.032;9.410;2023-08-12T00:49:29;7.27;;;3.73;;
71572;SDS011;59408;51.032;9.410;2023-08-12T00:51:57;6.30;;;3.60;;
71572;SDS011;59408;51.032;9.410;2023-08-12T00:54:25;7.03;;;3.92;;
71572;SDS011;59408;51.032;9.410;2023-08-12T00:56:53;6.20;;;3.60;;
71572;SDS011;59408;51.032;9.410;2023-08-12T00:59:20;7.95;;;3.92;;
71572;SDS011;59408;51.032;9.410;2023-08-12T01:01:48;6.83;;;3.80;;
71572;SDS011;59408;51.032;9.410;2023-08-12T01:04:15;8.43;;;3.65;;
71572;SDS011;59408;51.032;9.410;2023-08-12T01:06:44;7.47;;;3.80;;
71572;SDS011;59408;51.032;9.410;2023-08-12T01:09:11;7.18;;;3.97;;
71572;SDS011;59408;51.032;9.410;2023-08-12T01:11:39;7.53;;;3.60;;
71572;SDS011;59408;51.032;9.410;2023-08-12T01:14:12;9.23;;;3.90;;
71572;SDS011;59408;51.032;9.410;2023-08-12T01:16:44;6.78;;;3.70;;
71572;SDS011;59408;51.032;9.410;2023-08-12T01:19:17;10.07;;;3.90;;
71572;SDS011;59408;51.032;9.410;2023-08-12T01:21:52;7.22;;;3.70;;
71572;SDS011;59408;51.032;9.410;2023-08-12T01:24:24;7.60;;;3.80;;
71572;SDS011;59408;51.032;9.410;2023-08-12T01:26:51;7.50;;;3.80;;
71572;SDS011;59408;51.032;9.410;2023-08-12T01:29:17;6.68;;;3.60;;
71572;SDS011;59408;51.032;9.410;2023-08-12T01:31:45;7.20;;;3.42;;
71572;SDS011;59408;51.032;9.410;2023-08-12T01:34:20;7.32;;;3.60;;
71572;SDS011;59408;51.032;9.410;2023-08-12T01:36:54;6.50;;;3.50;;
71572;SDS011;59408;51.032;9.410;2023-08-12T01:39:24;6.70;;;3.30;;
71572;SDS011;59408;51.032;9.410;2023-08-12T01:41:53;7.28;;;3.60;;
71572;SDS011;59408;51.032;9.410;2023-08-12T01:44:22;8.43;;;3.78;;
71572;SDS011;59408;51.032;9.410;2023-08-12T01:46:48;7.35;;;3.85;;
71572;SDS011;59408;51.032;9.410;2023-08-12T01:49:15;7.97;;;3.60;;
71572;SDS011;59408;51.032;9.410;2023-08-12T01:51:42;7.77;;;3.63;;
71572;SDS011;59408;51.032;9.410;2023-08-12T01:54:09;11.40;;;3.75;;
71572;SDS011;59408;51.032;9.410;2023-08-12T01:56:38;6.10;;;3.22;;
71572;SDS011;59408;51.032;9.410;2023-08-12T01:59:05;6.88;;;3.28;;
71572;SDS011;59408;51.032;9.410;2023-08-12T02:01:32;7.40;;;3.70;;
71572;SDS011;59408;51.032;9.410;2023-08-12T02:03:59;7.23;;;3.90;;
71572;SDS011;59408;51.032;9.410;2023-08-12T02:06:26;7.07;;;3.40;;
71572;SDS011;59408;51.032;9.410;2023-08-12T02:08:53;7.55;;;3.53;;
71572;SDS011;59408;51.032;9.410;2023-08-12T02:11:19;5.93;;;3.25;;
71572;SDS011;59408;51.032;9.410;2023-08-12T02:13:48;6.22;;;3.70;;
71572;SDS011;59408;51.032;9.410;2023-08-12T02:16:15;6.40;;;3.47;;
71572;SDS011;59408;51.032;9.410;2023-08-12T02:18:42;6.88;;;3.20;;
71572;SDS011;59408;51.032;9.410;2023-08-12T02:21:09;6.40;;;3.50;;
71572;SDS011;59408;51.032;9.410;2023-08-12T02:23:36;8.52;;;3.50;;
71572;SDS011;59408;51.032;9.410;2023-08-12T02:26:03;7.25;;;3.70;;
71572;SDS011;59408;51.032;9.410;2023-08-12T02:28:30;6.53;;;3.50;;
71572;SDS011;59408;51.032;9.410;2023-08-12T02:30:58;9.18;;;3.88;;
71572;SDS011;59408;51.032;9.410;2023-08-12T02:33:25;6.38;;;3.63;;
71572;SDS011;59408;51.032;9.410;2023-08-12T02:35:52;6.70;;;3.65;;
71572;SDS011;59408;51.032;9.410;2023-08-12T02:38:20;9.27;;;3.88;;
71572;SDS011;59408;51.032;9.410;2023-08-12T02:40:47;6.30;;;3.50;;
71572;SDS011;59408;51.032;9.410;2023-08-12T02:43:14;8.77;;;3.70;;
71572;SDS011;59408;51.032;9.410;2023-08-12T02:45:41;6.53;;;3.63;;
71572;SDS011;59408;51.032;9.410;2023-08-12T02:48:10;7.90;;;3.75;;
71572;SDS011;59408;51.032;9.410;2023-08-12T02:50:37;7.35;;;4.00;;
71572;SDS011;59408;51.032;9.410;2023-08-12T02:53:04;7.90;;;3.50;;
71572;SDS011;59408;51.032;9.410;2023-08-12T02:55:32;10.23;;;3.83;;
71572;SDS011;59408;51.032;9.410;2023-08-12T02:57:59;7.07;;;4.10;;
71572;SDS011;59408;51.032;9.410;2023-08-12T03:00:26;6.55;;;3.90;;
71572;SDS011;59408;51.032;9.410;2023-08-12T03:02:53;7.25;;;4.18;;
71572;SDS011;59408;51.032;9.410;2023-08-12T03:05:22;9.60;;;3.93;;
71572;SDS011;59408;51.032;9.410;2023-08-12T03:07:49;10.82;;;4.15;;
71572;SDS011;59408;51.032;9.410;2023-08-12T03:10:16;8.60;;;4.40;;
71572;SDS011;59408;51.032;9.410;2023-08-12T03:12:43;8.55;;;4.68;;
71572;SDS011;59408;51.032;9.410;2023-08-12T03:15:10;7.43;;;4.53;;
71572;SDS011;59408;51.032;9.410;2023-08-12T03:17:37;7.47;;;4.20;;
71572;SDS011;59408;51.032;9.410;2023-08-12T03:20:04;7.70;;;4.35;;
71572;SDS011;59408;51.032;9.410;2023-08-12T03:22:33;8.38;;;4.43;;
71572;SDS011;59408;51.032;9.410;2023-08-12T03:25:00;8.38;;;4.40;;
71572;SDS011;59408;51.032;9.410;2023-08-12T03:27:27;7.93;;;4.65;;
71572;SDS011;59408;51.032;9.410;2023-08-12T03:29:53;8.90;;;4.43;;
71572;SDS011;59408;51.032;9.410;2023-08-12T03:32:20;11.43;;;5.45;;
71572;SDS011;59408;51.032;9.410;2023-08-12T03:34:46;8.65;;;5.10;;
71572;SDS011;59408;51.032;9.410;2023-08-12T03:37:13;9.20;;;5.18;;
71572;SDS011;59408;51.032;9.410;2023-08-12T03:39:41;8.23;;;4.28;;
71572;SDS011;59408;51.032;9.410;2023-08-12T03:42:08;9.77;;;5.13;;
71572;SDS011;59408;51.032;9.410;2023-08-12T03:44:34;9.48;;;4.82;;
71572;SDS011;59408;51.032;9.410;2023-08-12T03:47:01;8.30;;;4.93;;
71572;SDS011;59408;51.032;9.410;2023-08-12T03:49:28;12.20;;;5.85;;
71572;SDS011;59408;51.032;9.410;2023-08-12T03:51:55;11.98;;;6.57;;
71572;SDS011;59408;51.032;9.410;2023-08-12T03:54:22;14.03;;;7.00;;
71572;SDS011;59408;51.032;9.410;2023-08-12T03:56:50;9.85;;;6.47;;
71572;SDS011;59408;51.032;9.410;2023-08-12T03:59:17;12.00;;;6.97;;
71572;SDS011;59408;51.032;9.410;2023-08-12T04:01:44;11.00;;;6.68;;
71572;SDS011;59408;51.032;9.410;2023-08-12T04:04:11;11.82;;;6.60;;
71572;SDS011;59408;51.032;9.410;2023-08-12T04:06:40;11.27;;;6.07;;
71572;SDS011;59408;51.032;9.410;2023-08-12T04:09:07;11.43;;;7.13;;
71572;SDS011;59408;51.032;9.410;2023-08-12T04:11:33;11.73;;;7.30;;
71572;SDS011;59408;51.032;9.410;2023-08-12T04:14:02;11.35;;;6.80;;
71572;SDS011;59408;51.032;9.410;2023-08-12T04:16:28;13.77;;;7.03;;
71572;SDS011;59408;51.032;9.410;2023-08-12T04:18:56;15.03;;;7.47;;
71572;SDS011;59408;51.032;9.410;2023-08-12T04:21:22;11.77;;;6.78;;
71572;SDS011;59408;51.032;9.410;2023-08-12T04:23:49;13.23;;;7.25;;
71572;SDS011;59408;51.032;9.410;2023-08-12T04:26:16;14.25;;;7.10;;
71572;SDS011;59408;51.032;9.410;2023-08-12T04:28:42;13.10;;;6.93;;
71572;SDS011;59408;51.032;9.410;2023-08-12T04:31:11;15.17;;;7.13;;
71572;SDS011;59408;51.032;9.410;2023-08-12T04:33:37;13.05;;;6.68;;
71572;SDS011;59408;51.032;9.410;2023-08-12T04:36:05;12.43;;;7.53;;
71572;SDS011;59408;51.032;9.410;2023-08-12T04:38:32;13.27;;;7.35;;
71572;SDS011;59408;51.032;9.410;2023-08-12T04:40:59;12.57;;;7.05;;
71572;SDS011;59408;51.032;9.410;2023-08-12T04:43:26;12.37;;;6.53;;
71572;SDS011;59408;51.032;9.410;2023-08-12T04:45:53;11.15;;;6.45;;
71572;SDS011;59408;51.032;9.410;2023-08-12T04:48:21;12.18;;;6.60;;
71572;SDS011;59408;51.032;9.410;2023-08-12T04:50:48;12.80;;;6.55;;
71572;SDS011;59408;51.032;9.410;2023-08-12T04:53:15;11.10;;;6.82;;
71572;SDS011;59408;51.032;9.410;2023-08-12T04:55:42;12.80;;;6.47;;
71572;SDS011;59408;51.032;9.410;2023-08-12T04:58:12;13.65;;;6.70;;
71572;SDS011;59408;51.032;9.410;2023-08-12T05:00:39;9.82;;;6.35;;
71572;SDS011;59408;51.032;9.410;2023-08-12T05:03:06;10.90;;;6.63;;
71572;SDS011;59408;51.032;9.410;2023-08-12T05:05:35;10.43;;;6.43;;
71572;SDS011;59408;51.032;9.410;2023-08-12T05:08:02;9.83;;;5.90;;
71572;SDS011;59408;51.032;9.410;2023-08-12T05:10:29;11.38;;;6.50;;
71572;SDS011;59408;51.032;9.410;2023-08-12T05:12:57;12.57;;;7.28;;
71572;SDS011;59408;51.032;9.410;2023-08-12T05:15:24;12.23;;;6.80;;
71572;SDS011;59408;51.032;9.410;2023-08-12T05:17:50;10.80;;;7.03;;
71572;SDS011;59408;51.032;9.410;2023-08-12T05:20:17;10.37;;;6.47;;
71572;SDS011;59408;51.032;9.410;2023-08-12T05:22:46;10.90;;;6.22;;
71572;SDS011;59408;51.032;9.410;2023-08-12T05:25:13;10.98;;;6.63;;
71572;SDS011;59408;51.032;9.410;2023-08-12T05:27:40;10.18;;;6.40;;
71572;SDS011;59408;51.032;9.410;2023-08-12T05:30:07;9.73;;;6.30;;
71572;SDS011;59408;51.032;9.410;2023-08-12T05:32:34;13.80;;;6.60;;
71572;SDS011;59408;51.032;9.410;2023-08-12T05:35:01;12.45;;;6.75;;
71572;SDS011;59408;51.032;9.410;2023-08-12T05:37:28;14.73;;;7.20;;
71572;SDS011;59408;51.032;9.410;2023-08-12T05:39:56;10.43;;;6.82;;
71572;SDS011;59408;51.032;9.410;2023-08-12T05:42:23;11.52;;;6.53;;
71572;SDS011;59408;51.032;9.410;2023-08-12T05:44:50;10.80;;;7.07;;
71572;SDS011;59408;51.032;9.410;2023-08-12T05:47:17;13.52;;;7.53;;
71572;SDS011;59408;51.032;9.410;2023-08-12T05:49:44;11.95;;;7.28;;
71572;SDS011;59408;51.032;9.410;2023-08-12T05:52:11;10.07;;;6.30;;
71572;SDS011;59408;51.032;9.410;2023-08-12T05:54:38;10.07;;;6.45;;
71572;SDS011;59408;51.032;9.410;2023-08-12T05:57:07;11.00;;;7.00;;
71572;SDS011;59408;51.032;9.410;2023-08-12T05:59:33;10.40;;;6.75;;
71572;SDS011;59408;51.032;9.410;2023-08-12T06:02:00;13.45;;;7.47;;
71572;SDS011;59408;51.032;9.410;2023-08-12T06:04:27;10.70;;;7.03;;
71572;SDS011;59408;51.032;9.410;2023-08-12T06:06:54;11.10;;;6.82;;
71572;SDS011;59408;51.032;9.410;2023-08-12T06:09:21;11.13;;;6.67;;
71572;SDS011;59408;51.032;9.410;2023-08-12T06:11:47;10.80;;;6.68;;
71572;SDS011;59408;51.032;9.410;2023-08-12T06:14:16;11.35;;;6.80;;
71572;SDS011;59408;51.032;9.410;2023-08-12T06:16:43;13.68;;;6.57;;
71572;SDS011;59408;51.032;9.410;2023-08-12T06:19:09;14.35;;;7.38;;
71572;SDS011;59408;51.032;9.410;2023-08-12T06:21:37;10.03;;;6.90;;
71572;SDS011;59408;51.032;9.410;2023-08-12T06:24:04;10.63;;;6.63;;
71572;SDS011;59408;51.032;9.410;2023-08-12T06:26:31;10.30;;;6.63;;
71572;SDS011;59408;51.032;9.410;2023-08-12T06:28:58;13.90;;;6.85;;
71572;SDS011;59408;51.032;9.410;2023-08-12T06:31:28;10.48;;;7.10;;
71572;SDS011;59408;51.032;9.410;2023-08-12T06:33:55;12.63;;;6.90;;
71572;SDS011;59408;51.032;9.410;2023-08-12T06:36:22;9.02;;;5.95;;
71572;SDS011;59408;51.032;9.410;2023-08-12T06:38:49;11.32;;;6.03;;
71572;SDS011;59408;51.032;9.410;2023-08-12T06:41:16;10.68;;;5.93;;
71572;SDS011;59408;51.032;9.410;2023-08-12T06:43:43;10.85;;;6.10;;
71572;SDS011;59408;51.032;9.410;2023-08-12T06:46:10;9.33;;;5.50;;
71572;SDS011;59408;51.032;9.410;2023-08-12T06:48:38;9.50;;;5.72;;
71572;SDS011;59408;51.032;9.410;2023-08-12T06:51:05;9.25;;;6.15;;
71572;SDS011;59408;51.032;9.410;2023-08-12T06:53:32;10.25;;;6.45;;
71572;SDS011;59408;51.032;9.410;2023-08-12T06:55:59;12.55;;;6.30;;
71572;SDS011;59408;51.032;9.410;2023-08-12T06:58:26;12.43;;;6.43;;
71572;SDS011;59408;51.032;9.410;2023-08-12T07:00:53;11.18;;;6.10;;
71572;SDS011;59408;51.032;9.410;2023-08-12T07:03:20;10.60;;;6.30;;
71572;SDS011;59408;51.032;9.410;2023-08-12T07:05:48;10.90;;;5.55;;
71572;SDS011;59408;51.032;9.410;2023-08-12T07:08:14;8.85;;;5.88;;
71572;SDS011;59408;51.032;9.410;2023-08-12T07:10:41;9.83;;;6.20;;
71572;SDS011;59408;51.032;9.410;2023-08-12T07:13:08;9.18;;;5.72;;
71572;SDS011;59408;51.032;9.410;2023-08-12T07:15:35;9.88;;;5.95;;
71572;SDS011;59408;51.032;9.410;2023-08-12T07:18:02;9.80;;;5.28;;
71572;SDS011;59408;51.032;9.410;2023-08-12T07:20:29;9.93;;;5.95;;
71572;SDS011;59408;51.032;9.410;2023-08-12T07:22:57;9.13;;;5.40;;
71572;SDS011;59408;51.032;9.410;2023-08-12T07:25:24;11.48;;;5.72;;
71572;SDS011;59408;51.032;9.410;2023-08-12T07:27:51;9.63;;;5.40;;
71572;SDS011;59408;51.032;9.410;2023-08-12T07:30:17;10.60;;;6.47;;
71572;SDS011;59408;51.032;9.410;2023-08-12T07:32:44;10.77;;;5.97;;
71572;SDS011;59408;51.032;9.410;2023-08-12T07:35:11;13.20;;;6.13;;
71572;SDS011;59408;51.032;9.410;2023-08-12T07:37:37;11.20;;;5.82;;
71572;SDS011;59408;51.032;9.410;2023-08-12T07:40:06;9.85;;;5.63;;
71572;SDS011;59408;51.032;9.410;2023-08-12T07:42:34;8.65;;;5.60;;
71572;SDS011;59408;51.032;9.410;2023-08-12T07:45:00;8.55;;;5.25;;
71572;SDS011;59408;51.032;9.410;2023-08-12T07:47:27;10.93;;;5.30;;
71572;SDS011;59408;51.032;9.410;2023-08-12T07:49:54;8.63;;;5.28;;
71572;SDS011;59408;51.032;9.410;2023-08-12T07:52:21;10.65;;;6.45;;
71572;SDS011;59408;51.032;9.410;2023-08-12T07:54:47;12.43;;;6.32;;
71572;SDS011;59408;51.032;9.410;2023-08-12T07:57:15;8.95;;;5.45;;
71572;SDS011;59408;51.032;9.410;2023-08-12T07:59:42;9.97;;;5.67;;
71572;SDS011;59408;51.032;9.410;2023-08-12T08:02:09;9.65;;;5.85;;
71572;SDS011;59408;51.032;9.410;2023-08-12T08:04:36;8.75;;;5.82;;
71572;SDS011;59408;51.032;9.410;2023-08-12T08:07:03;9.00;;;5.90;;
71572;SDS011;59408;51.032;9.410;2023-08-12T08:09:30;12.25;;;6.32;;
71572;SDS011;59408;51.032;9.410;2023-08-12T08:11:57;8.67;;;6.20;;
71572;SDS011;59408;51.032;9.410;2023-08-12T08:14:25;10.75;;;5.80;;
71572;SDS011;59408;51.032;9.410;2023-08-12T08:16:52;8.90;;;6.10;;
71572;SDS011;59408;51.032;9.410;2023-08-12T08:19:19;11.02;;;6.15;;
71572;SDS011;59408;51.032;9.410;2023-08-12T08:21:45;10.13;;;6.20;;
71572;SDS011;59408;51.032;9.410;2023-08-12T08:24:12;9.80;;;6.33;;
71572;SDS011;59408;51.032;9.410;2023-08-12T08:26:39;10.27;;;6.40;;
71572;SDS011;59408;51.032;9.410;2023-08-12T08:29:06;10.68;;;6.13;;
71572;SDS011;59408;51.032;9.410;2023-08-12T08:31:34;10.05;;;5.63;;
71572;SDS011;59408;51.032;9.410;2023-08-12T08:34:01;8.88;;;5.82;;
71572;SDS011;59408;51.032;9.410;2023-08-12T08:36:28;9.27;;;5.60;;
71572;SDS011;59408;51.032;9.410;2023-08-12T08:38:55;9.63;;;6.00;;
71572;SDS011;59408;51.032;9.410;2023-08-12T08:41:22;10.30;;;6.10;;
71572;SDS011;59408;51.032;9.410;2023-08-12T08:43:50;9.90;;;6.00;;
71572;SDS011;59408;51.032;9.410;2023-08-12T08:46:21;8.15;;;5.68;;
71572;SDS011;59408;51.032;9.410;2023-08-12T08:48:50;8.63;;;6.10;;
71572;SDS011;59408;51.032;9.410;2023-08-12T08:51:17;9.27;;;5.63;;
71572;SDS011;59408;51.032;9.410;2023-08-12T08:53:46;9.85;;;5.55;;
71572;SDS011;59408;51.032;9.410;2023-08-12T08:56:17;7.65;;;5.20;;
71572;SDS011;59408;51.032;9.410;2023-08-12T08:58:45;8.65;;;6.18;;
71572;SDS011;59408;51.032;9.410;2023-08-12T09:01:12;10.40;;;5.80;;
71572;SDS011;59408;51.032;9.410;2023-08-12T09:03:41;8.45;;;5.65;;
71572;SDS011;59408;51.032;9.410;2023-08-12T09:06:10;8.18;;;5.45;;
71572;SDS011;59408;51.032;9.410;2023-08-12T09:08:37;8.05;;;5.25;;
71572;SDS011;59408;51.032;9.410;2023-08-12T09:11:10;7.10;;;4.43;;
71572;SDS011;59408;51.032;9.410;2023-08-12T09:13:39;7.10;;;4.47;;
71572;SDS011;59408;51.032;9.410;2023-08-12T09:16:06;6.38;;;4.22;;
71572;SDS011;59408;51.032;9.410;2023-08-12T09:18:33;6.57;;;4.20;;
71572;SDS011;59408;51.032;9.410;2023-08-12T09:21:01;7.00;;;4.15;;
71572;SDS011;59408;51.032;9.410;2023-08-12T09:23:32;6.97;;;4.18;;
71572;SDS011;59408;51.032;9.410;2023-08-12T09:26:01;6.33;;;3.97;;
71572;SDS011;59408;51.032;9.410;2023-08-12T09:28:29;7.20;;;4.20;;
71572;SDS011;59408;51.032;9.410;2023-08-12T09:30:55;7.63;;;4.43;;
71572;SDS011;59408;51.032;9.410;2023-08-12T09:33:25;7.03;;;4.35;;
71572;SDS011;59408;51.032;9.410;2023-08-12T09:35:52;7.25;;;4.15;;
71572;SDS011;59408;51.032;9.410;2023-08-12T09:38:19;8.20;;;4.30;;
71572;SDS011;59408;51.032;9.410;2023-08-12T09:40:51;6.97;;;4.05;;
71572;SDS011;59408;51.032;9.410;2023-08-12T09:43:22;7.07;;;4.45;;
71572;SDS011;59408;51.032;9.410;2023-08-12T09:45:50;7.35;;;4.53;;
71572;SDS011;59408;51.032;9.410;2023-08-12T09:48:18;7.75;;;4.57;;
71572;SDS011;59408;51.032;9.410;2023-08-12T09:50:44;7.43;;;4.40;;
71572;SDS011;59408;51.032;9.410;2023-08-12T09:53:11;7.05;;;3.95;;
71572;SDS011;59408;51.032;9.410;2023-08-12T09:55:38;6.65;;;4.40;;
71572;SDS011;59408;51.032;9.410;2023-08-12T09:58:07;7.80;;;4.22;;
71572;SDS011;59408;51.032;9.410;2023-08-12T10:00:36;7.15;;;4.63;;
71572;SDS011;59408;51.032;9.410;2023-08-12T10:03:04;7.13;;;4.03;;
71572;SDS011;59408;51.032;9.410;2023-08-12T10:05:32;7.32;;;3.92;;
71572;SDS011;59408;51.032;9.410;2023-08-12T10:07:59;6.65;;;3.97;;
71572;SDS011;59408;51.032;9.410;2023-08-12T10:10:27;7.63;;;4.13;;
71572;SDS011;59408;51.032;9.410;2023-08-12T10:12:54;7.15;;;4.40;;
71572;SDS011;59408;51.032;9.410;2023-08-12T10:15:23;7.63;;;3.97;;
71572;SDS011;59408;51.032;9.410;2023-08-12T10:17:51;6.32;;;3.50;;
71572;SDS011;59408;51.032;9.410;2023-08-12T10:20:20;7.10;;;3.80;;
71572;SDS011;59408;51.032;9.410;2023-08-12T10:22:48;6.75;;;3.55;;
71572;SDS011;59408;51.032;9.410;2023-08-12T10:25:17;6.38;;;3.20;;
71572;SDS011;59408;51.032;9.410;2023-08-12T10:27:45;6.00;;;3.10;;
71572;SDS011;59408;51.032;9.410;2023-08-12T10:30:12;7.05;;;3.50;;
71572;SDS011;59408;51.032;9.410;2023-08-12T10:32:41;6.22;;;3.40;;
71572;SDS011;59408;51.032;9.410;2023-08-12T10:35:08;6.35;;;2.95;;
71572;SDS011;59408;51.032;9.410;2023-08-12T10:37:35;7.03;;;2.95;;
71572;SDS011;59408;51.032;9.410;2023-08-12T10:40:03;6.47;;;2.63;;
71572;SDS011;59408;51.032;9.410;2023-08-12T10:42:39;5.45;;;2.67;;
71572;SDS011;59408;51.032;9.410;2023-08-12T10:45:07;5.22;;;2.70;;
71572;SDS011;59408;51.032;9.410;2023-08-12T10:47:37;5.93;;;2.90;;
71572;SDS011;59408;51.032;9.410;2023-08-12T10:50:10;6.18;;;2.75;;
71572;SDS011;59408;51.032;9.410;2023-08-12T10:52:43;5.40;;;2.63;;
71572;SDS011;59408;51.032;9.410;2023-08-12T10:55:16;5.70;;;2.90;;
71572;SDS011;59408;51.032;9.410;2023-08-12T10:57:43;5.15;;;2.45;;
71572;SDS011;59408;51.032;9.410;2023-08-12T11:00:10;5.82;;;2.80;;
71572;SDS011;59408;51.032;9.410;2023-08-12T11:02:39;5.72;;;2.58;;
71572;SDS011;59408;51.032;9.410;2023-08-12T11:05:11;5.57;;;2.63;;
71572;SDS011;59408;51.032;9.410;2023-08-12T11:07:40;5.68;;;2.63;;
71572;SDS011;59408;51.032;9.410;2023-08-12T11:10:12;5.80;;;2.90;;
71572;SDS011;59408;51.032;9.410;2023-08-12T11:12:40;6.68;;;2.80;;
71572;SDS011;59408;51.032;9.410;2023-08-12T11:15:08;5.45;;;2.85;;
71572;SDS011;59408;51.032;9.410;2023-08-12T11:17:37;6.73;;;2.77;;
71572;SDS011;59408;51.032;9.410;2023-08-12T11:20:06;5.60;;;3.10;;
71572;SDS011;59408;51.032;9.410;2023-08-12T11:22:37;6.15;;;2.95;;
71572;SDS011;59408;51.032;9.410;2023-08-12T11:25:06;5.95;;;3.17;;
71572;SDS011;59408;51.032;9.410;2023-08-12T11:27:37;5.47;;;3.13;;
71572;SDS011;59408;51.032;9.410;2023-08-12T11:30:06;5.80;;;2.80;;
71572;SDS011;59408;51.032;9.410;2023-08-12T11:32:34;5.82;;;2.97;;
71572;SDS011;59408;51.032;9.410;2023-08-12T11:35:01;6.30;;;3.28;;
71572;SDS011;59408;51.032;9.410;2023-08-12T11:37:29;6.47;;;3.22;;
71572;SDS011;59408;51.032;9.410;2023-08-12T11:39:57;6.78;;;3.40;;
71572;SDS011;59408;51.032;9.410;2023-08-12T11:42:24;6.20;;;3.33;;
71572;SDS011;59408;51.032;9.410;2023-08-12T11:44:51;5.65;;;3.08;;
71572;SDS011;59408;51.032;9.410;2023-08-12T11:47:18;6.10;;;3.40;;
71572;SDS011;59408;51.032;9.410;2023-08-12T11:49:44;7.55;;;3.60;;
71572;SDS011;59408;51.032;9.410;2023-08-12T11:52:11;6.75;;;3.40;;
71572;SDS011;59408;51.032;9.410;2023-08-12T11:54:39;6.90;;;3.20;;
71572;SDS011;59408;51.032;9.410;2023-08-12T11:57:07;7.30;;;3.40;;
71572;SDS011;59408;51.032;9.410;2023-08-12T11:59:34;6.28;;;3.55;;
71572;SDS011;59408;51.032;9.410;2023-08-12T12:02:02;7.25;;;3.80;;
71572;SDS011;59408;51.032;9.410;2023-08-12T12:04:30;7.38;;;3.40;;
71572;SDS011;59408;51.032;9.410;2023-08-12T12:06:57;6.43;;;3.33;;
71572;SDS011;59408;51.032;9.410;2023-08-12T12:09:24;6.75;;;3.20;;
71572;SDS011;59408;51.032;9.410;2023-08-12T12:11:52;7.28;;;3.70;;
71572;SDS011;59408;51.032;9.410;2023-08-12T12:14:21;6.68;;;3.55;;
71572;SDS011;59408;51.032;9.410;2023-08-12T12:16:48;8.70;;;4.15;;
71572;SDS011;59408;51.032;9.410;2023-08-12T12:19:16;6.87;;;3.83;;
71572;SDS011;59408;51.032;9.410;2023-08-12T12:21:45;6.88;;;4.10;;
71572;SDS011;59408;51.032;9.410;2023-08-12T12:24:13;6.90;;;3.92;;
71572;SDS011;59408;51.032;9.410;2023-08-12T12:26:40;6.57;;;3.72;;
71572;SDS011;59408;51.032;9.410;2023-08-12T12:29:07;6.80;;;4.35;;
71572;SDS011;59408;51.032;9.410;2023-08-12T12:31:36;7.40;;;4.40;;
71572;SDS011;59408;51.032;9.410;2023-08-12T12:34:03;6.68;;;4.35;;
71572;SDS011;59408;51.032;9.410;2023-08-12T12:36:30;5.95;;;3.72;;
71572;SDS011;59408;51.032;9.410;2023-08-12T12:38:57;7.10;;;3.97;;
71572;SDS011;59408;51.032;9.410;2023-08-12T12:41:24;7.47;;;4.32;;
71572;SDS011;59408;51.032;9.410;2023-08-12T12:43:51;7.20;;;3.77;;
71572;SDS011;59408;51.032;9.410;2023-08-12T12:46:18;6.13;;;3.40;;
71572;SDS011;59408;51.032;9.410;2023-08-12T12:48:46;7.75;;;3.83;;
71572;SDS011;59408;51.032;9.410;2023-08-12T12:51:13;6.38;;;3.83;;
71572;SDS011;59408;51.032;9.410;2023-08-12T12:53:41;9.05;;;4.10;;
71572;SDS011;59408;51.032;9.410;2023-08-12T12:56:07;8.20;;;3.60;;
71572;SDS011;59408;51.032;9.410;2023-08-12T12:58:36;7.20;;;3.85;;
71572;SDS011;59408;51.032;9.410;2023-08-12T13:01:04;7.22;;;3.70;;
71572;SDS011;59408;51.032;9.410;2023-08-12T13:03:31;6.60;;;3.75;;
71572;SDS011;59408;51.032;9.410;2023-08-12T13:05:59;7.05;;;3.67;;
71572;SDS011;59408;51.032;9.410;2023-08-12T13:08:26;7.20;;;4.17;;
71572;SDS011;59408;51.032;9.410;2023-08-12T13:10:53;7.78;;;3.60;;
71572;SDS011;59408;51.032;9.410;2023-08-12T13:13:19;7.15;;;4.00;;
71572;SDS011;59408;51.032;9.410;2023-08-12T13:15:46;7.07;;;3.80;;
71572;SDS011;59408;51.032;9.410;2023-08-12T13:18:14;7.03;;;4.20;;
71572;SDS011;59408;51.032;9.410;2023-08-12T13:20:41;6.47;;;3.80;;
71572;SDS011;59408;51.032;9.410;2023-08-12T13:23:09;6.95;;;4.00;;
71572;SDS011;59408;51.032;9.410;2023-08-12T13:25:37;6.95;;;4.32;;
71572;SDS011;59408;51.032;9.410;2023-08-12T13:28:04;8.52;;;4.55;;
71572;SDS011;59408;51.032;9.410;2023-08-12T13:30:31;6.85;;;4.30;;
71572;SDS011;59408;51.032;9.410;2023-08-12T13:32:58;7.70;;;4.50;;
71572;SDS011;59408;51.032;9.410;2023-08-12T13:35:27;7.38;;;4.50;;
71572;SDS011;59408;51.032;9.410;2023-08-12T13:37:54;6.32;;;4.20;;
71572;SDS011;59408;51.032;9.410;2023-08-12T13:40:23;6.50;;;3.90;;
71572;SDS011;59408;51.032;9.410;2023-08-12T13:42:50;6.93;;;4.28;;
71572;SDS011;59408;51.032;9.410;2023-08-12T13:45:17;7.00;;;3.93;;
71572;SDS011;59408;51.032;9.410;2023-08-12T13:47:44;7.57;;;4.38;;
71572;SDS011;59408;51.032;9.410;2023-08-12T13:50:11;8.25;;;4.25;;
71572;SDS011;59408;51.032;9.410;2023-08-12T13:52:38;6.38;;;3.63;;
71572;SDS011;59408;51.032;9.410;2023-08-12T13:55:06;6.90;;;3.88;;
71572;SDS011;59408;51.032;9.410;2023-08-12T13:57:35;7.60;;;4.13;;
71572;SDS011;59408;51.032;9.410;2023-08-12T14:00:02;6.88;;;3.95;;
71572;SDS011;59408;51.032;9.410;2023-08-12T14:02:29;7.30;;;4.45;;
71572;SDS011;59408;51.032;9.410;2023-08-12T14:04:56;7.30;;;4.25;;
71572;SDS011;59408;51.032;9.410;2023-08-12T14:07:23;6.90;;;5.00;;
71572;SDS011;59408;51.032;9.410;2023-08-12T14:09:50;7.57;;;4.27;;
71572;SDS011;59408;51.032;9.410;2023-08-12T14:12:17;7.35;;;3.88;;
71572;SDS011;59408;51.032;9.410;2023-08-12T14:14:46;6.28;;;3.90;;
71572;SDS011;59408;51.032;9.410;2023-08-12T14:17:12;6.32;;;3.50;;
71572;SDS011;59408;51.032;9.410;2023-08-12T14:19:40;6.50;;;3.55;;
71572;SDS011;59408;51.032;9.410;2023-08-12T14:22:08;6.03;;;3.40;;
71572;SDS011;59408;51.032;9.410;2023-08-12T14:24:35;6.03;;;3.83;;
71572;SDS011;59408;51.032;9.410;2023-08-12T14:27:02;8.30;;;3.90;;
71572;SDS011;59408;51.032;9.410;2023-08-12T14:29:30;5.45;;;3.17;;
71572;SDS011;59408;51.032;9.410;2023-08-12T14:31:58;6.82;;;3.15;;
71572;SDS011;59408;51.032;9.410;2023-08-12T14:34:25;5.90;;;3.23;;
71572;SDS011;59408;51.032;9.410;2023-08-12T14:36:51;6.43;;;3.22;;
71572;SDS011;59408;51.032;9.410;2023-08-12T14:39:18;7.18;;;3.20;;
71572;SDS011;59408;51.032;9.410;2023-08-12T14:41:45;6.25;;;3.17;;
71572;SDS011;59408;51.032;9.410;2023-08-12T14:44:12;6.65;;;3.67;;